createdAt,value
2019-02-19T00:01:38.917Z,4.08
2019-02-19T00:04:08.407Z,4.04
2019-02-19T00:06:37.706Z,3.93
2019-02-19T00:09:07.780Z,3.96
2019-02-19T00:11:37.103Z,3.83
2019-02-19T00:14:06.349Z,3.85
2019-02-19T00:16:35.609Z,3.71
2019-02-19T00:19:04.877Z,3.77
2019-02-19T00:21:34.132Z,3.73
2019-02-19T00:24:03.429Z,3.54
2019-02-19T00:26:32.716Z,3.47
2019-02-19T00:29:02.013Z,3.53
2019-02-19T00:31:31.303Z,3.62
2019-02-19T00:34:00.550Z,3.45
2019-02-19T00:36:29.823Z,3.53
2019-02-19T00:38:59.097Z,3.48
2019-02-19T00:41:28.359Z,3.30
2019-02-19T00:43:57.628Z,3.49
2019-02-19T00:46:26.909Z,3.34
2019-02-19T00:48:56.161Z,3.30
2019-02-19T00:51:25.404Z,3.06
2019-02-19T00:53:54.682Z,3.06
2019-02-19T00:56:24.084Z,2.99
2019-02-19T00:58:54.859Z,2.72
2019-02-19T01:01:24.107Z,2.92
2019-02-19T01:03:55.323Z,3.21
2019-02-19T01:06:24.579Z,3.15
2019-02-19T01:08:53.840Z,3.10
2019-02-19T01:11:23.145Z,3.18
2019-02-19T01:13:53.875Z,2.99
2019-02-19T01:16:23.141Z,3.16
2019-02-19T01:18:52.392Z,3.14
2019-02-19T01:21:21.719Z,3.01
2019-02-19T01:23:50.998Z,3.14
2019-02-19T01:26:20.254Z,2.92
2019-02-19T01:28:49.545Z,2.84
2019-02-19T01:31:20.579Z,2.88
2019-02-19T01:33:49.847Z,2.98
2019-02-19T01:36:19.183Z,2.50
2019-02-19T01:38:48.498Z,2.41
2019-02-19T01:41:17.760Z,2.43
2019-02-19T01:43:46.999Z,2.42
2019-02-19T01:46:16.274Z,2.41
2019-02-19T01:48:45.519Z,2.48
2019-02-19T01:51:14.826Z,2.52
2019-02-19T01:53:44.078Z,2.58
2019-02-19T01:56:13.387Z,2.26
2019-02-19T01:58:42.710Z,2.30
2019-02-19T02:01:11.959Z,2.21
2019-02-19T02:03:41.236Z,2.07
2019-02-19T02:06:10.536Z,2.06
2019-02-19T02:08:39.807Z,2.02
2019-02-19T02:11:09.051Z,1.86
2019-02-19T02:13:39.771Z,1.69
2019-02-19T02:16:09.025Z,1.74
2019-02-19T02:18:38.299Z,1.92
2019-02-19T02:21:07.568Z,2.08
2019-02-19T02:23:36.817Z,1.89
2019-02-19T02:26:06.116Z,1.93
2019-02-19T02:28:35.354Z,1.83
2019-02-19T02:31:04.660Z,1.68
2019-02-19T02:33:33.933Z,1.59
2019-02-19T02:36:03.190Z,1.83
2019-02-19T02:38:32.512Z,1.88
2019-02-19T02:41:01.770Z,1.74
2019-02-19T02:43:31.022Z,1.53
2019-02-19T02:46:00.305Z,1.64
2019-02-19T02:48:29.546Z,1.62
2019-02-19T02:50:58.863Z,1.81
2019-02-19T02:53:28.153Z,1.63
2019-02-19T02:55:57.427Z,1.57
2019-02-19T02:58:26.671Z,1.28
2019-02-19T03:00:56.078Z,1.53
2019-02-19T03:03:25.361Z,1.66
2019-02-19T03:06:05.663Z,1.63
2019-02-19T03:08:34.993Z,1.50
2019-02-19T03:11:04.288Z,1.49
2019-02-19T03:13:33.681Z,1.35
2019-02-19T03:16:02.936Z,1.31
2019-02-19T03:18:32.184Z,1.31
2019-02-19T03:21:01.466Z,1.38
2019-02-19T03:23:30.713Z,1.42
2019-02-19T03:26:00.006Z,1.52
2019-02-19T03:28:29.239Z,1.38
2019-02-19T03:30:58.511Z,1.34
2019-02-19T03:33:27.774Z,1.25
2019-02-19T03:35:57.027Z,1.01
2019-02-19T03:38:26.361Z,0.85
2019-02-19T03:40:55.609Z,0.99
2019-02-19T03:43:24.869Z,0.98
2019-02-19T03:45:54.154Z,1.01
2019-02-19T03:48:23.419Z,1.23
2019-02-19T03:50:52.696Z,1.23
2019-02-19T03:53:21.979Z,1.17
2019-02-19T03:55:51.224Z,0.97
2019-02-19T03:58:20.599Z,1.01
2019-02-19T04:00:49.945Z,1.15
2019-02-19T04:03:19.243Z,1.15
2019-02-19T04:05:48.624Z,0.96
2019-02-19T04:08:17.882Z,1.10
2019-02-19T04:10:47.175Z,1.01
2019-02-19T04:13:16.437Z,1.20
2019-02-19T04:15:45.709Z,1.37
2019-02-19T04:18:14.962Z,1.36
2019-02-19T04:20:44.220Z,1.26
2019-02-19T04:23:13.509Z,1.32
2019-02-19T04:25:42.838Z,1.09
2019-02-19T04:28:12.124Z,1.19
2019-02-19T04:30:41.412Z,1.05
2019-02-19T04:33:10.655Z,0.92
2019-02-19T04:35:39.937Z,0.79
2019-02-19T04:38:09.219Z,0.75
2019-02-19T04:40:38.538Z,0.80
2019-02-19T04:43:07.794Z,0.68
2019-02-19T04:45:37.061Z,0.69
2019-02-19T04:48:06.325Z,0.78
2019-02-19T04:50:35.570Z,0.78
2019-02-19T04:53:04.895Z,0.65
2019-02-19T04:55:34.171Z,0.72
2019-02-19T04:58:03.426Z,0.69
2019-02-19T05:00:32.707Z,0.66
2019-02-19T05:03:01.986Z,0.66
2019-02-19T05:05:31.300Z,0.53
2019-02-19T05:08:00.550Z,0.70
2019-02-19T05:10:29.805Z,0.57
2019-02-19T05:12:59.083Z,0.73
2019-02-19T05:15:28.331Z,0.81
2019-02-19T05:17:57.620Z,0.92
2019-02-19T05:20:26.870Z,0.87
2019-02-19T05:22:56.153Z,1.04
2019-02-19T05:25:25.423Z,0.86
2019-02-19T05:27:54.675Z,0.90
2019-02-19T05:30:23.952Z,0.95
2019-02-19T05:32:53.229Z,0.92
2019-02-19T05:35:22.520Z,0.95
2019-02-19T05:37:51.777Z,0.93
2019-02-19T05:40:21.084Z,0.93
2019-02-19T05:42:50.365Z,0.94
2019-02-19T05:45:19.647Z,0.93
2019-02-19T05:47:48.939Z,1.07
2019-02-19T05:50:18.244Z,1.12
2019-02-19T05:52:47.731Z,1.25
2019-02-19T05:55:19.367Z,1.39
2019-02-19T05:57:49.059Z,1.31
2019-02-19T06:00:18.969Z,1.21
2019-02-19T06:02:48.985Z,1.04
2019-02-19T06:05:18.903Z,1.22
2019-02-19T06:07:48.772Z,1.37
2019-02-19T06:10:19.485Z,1.52
2019-02-19T06:12:49.662Z,1.20
2019-02-19T06:15:20.123Z,1.26
2019-02-19T06:17:51.527Z,1.10
2019-02-19T06:20:22.392Z,1.00
2019-02-19T06:22:52.506Z,1.18
2019-02-19T06:25:23.047Z,1.19
2019-02-19T06:27:53.093Z,1.19
2019-02-19T06:30:22.931Z,1.24
2019-02-19T06:32:53.128Z,1.23
2019-02-19T06:35:23.499Z,1.17
2019-02-19T06:37:53.685Z,1.21
2019-02-19T06:40:27.992Z,1.44
2019-02-19T06:42:58.035Z,1.58
2019-02-19T06:45:29.331Z,1.60
2019-02-19T06:47:58.992Z,1.64
2019-02-19T06:50:29.158Z,1.57
2019-02-19T06:52:58.515Z,1.30
2019-02-19T06:55:27.764Z,1.37
2019-02-19T06:57:58.568Z,1.34
2019-02-19T07:00:27.868Z,1.47
2019-02-19T07:03:05.698Z,1.62
2019-02-19T07:05:34.953Z,1.53
2019-02-19T07:08:04.275Z,1.56
2019-02-19T07:10:33.525Z,1.94
2019-02-19T07:13:02.805Z,2.05
2019-02-19T07:15:32.220Z,1.88
2019-02-19T07:18:01.487Z,2.00
2019-02-19T07:20:30.763Z,2.18
2019-02-19T07:23:00.070Z,2.41
2019-02-19T07:25:29.353Z,2.37
2019-02-19T07:27:58.645Z,2.25
2019-02-19T07:30:27.971Z,2.34
2019-02-19T07:32:57.256Z,2.70
2019-02-19T07:35:26.550Z,2.78
2019-02-19T07:37:55.803Z,2.78
2019-02-19T07:40:25.080Z,2.93
2019-02-19T07:42:54.386Z,3.32
2019-02-19T07:45:23.669Z,3.74
2019-02-19T07:47:52.989Z,3.81
2019-02-19T07:50:22.328Z,3.94
2019-02-19T07:52:52.717Z,4.13
2019-02-19T07:55:21.981Z,4.29
2019-02-19T07:57:51.289Z,4.49
2019-02-19T08:00:20.649Z,4.46
2019-02-19T08:02:49.946Z,4.50
2019-02-19T08:05:19.242Z,4.53
2019-02-19T08:07:48.532Z,4.67
2019-02-19T08:10:17.814Z,4.80
2019-02-19T08:12:47.513Z,4.83
2019-02-19T08:15:16.766Z,5.19
2019-02-19T08:17:46.126Z,5.51
2019-02-19T08:20:16.397Z,5.72
2019-02-19T08:22:45.779Z,5.88
2019-02-19T08:25:15.026Z,5.91
2019-02-19T08:27:44.332Z,6.22
2019-02-19T08:30:13.681Z,6.43
2019-02-19T08:32:43.044Z,6.97
2019-02-19T08:35:12.400Z,6.82
2019-02-19T08:37:41.729Z,7.40
2019-02-19T08:40:11.085Z,7.18
2019-02-19T08:42:40.383Z,7.44
2019-02-19T08:45:14.543Z,6.94
2019-02-19T08:47:43.828Z,7.60
2019-02-19T08:50:13.078Z,7.94
2019-02-19T08:52:42.366Z,8.32
2019-02-19T08:55:11.653Z,8.79
2019-02-19T08:57:40.917Z,9.37
2019-02-19T09:00:11.017Z,9.07
2019-02-19T09:02:40.313Z,9.47
2019-02-19T09:05:09.669Z,9.99
2019-02-19T09:07:40.097Z,10.08
2019-02-19T09:10:10.073Z,9.64
2019-02-19T09:12:39.366Z,9.78
2019-02-19T09:15:11.256Z,9.73
2019-02-19T09:17:40.641Z,9.93
2019-02-19T09:20:10.045Z,11.13
2019-02-19T09:22:39.296Z,12.00
2019-02-19T09:25:08.713Z,12.31
2019-02-19T09:27:39.783Z,11.83
2019-02-19T09:30:11.089Z,11.66
2019-02-19T09:32:40.373Z,11.35
2019-02-19T09:35:09.954Z,11.45
2019-02-19T09:37:39.341Z,11.31
2019-02-19T09:40:09.175Z,11.53
2019-02-19T09:42:38.594Z,11.61
2019-02-19T09:45:08.598Z,11.55
2019-02-19T09:47:37.871Z,12.05
2019-02-19T09:50:07.773Z,11.73
2019-02-19T09:52:37.037Z,11.40
2019-02-19T09:55:06.456Z,11.38
2019-02-19T09:57:35.723Z,11.28
2019-02-19T10:00:07.010Z,11.73
2019-02-19T10:02:36.263Z,11.58
2019-02-19T10:05:06.549Z,12.12
2019-02-19T10:07:35.848Z,11.49
2019-02-19T10:10:06.241Z,11.15
2019-02-19T10:12:35.521Z,10.74
2019-02-19T10:15:05.204Z,10.67
2019-02-19T10:17:34.469Z,10.82
2019-02-19T10:20:03.855Z,10.39
2019-02-19T10:22:33.147Z,10.19
2019-02-19T10:25:02.565Z,10.30
2019-02-19T10:27:31.839Z,10.10
2019-02-19T10:30:01.099Z,9.90
2019-02-19T10:32:30.374Z,9.92
2019-02-19T10:34:59.663Z,9.81
2019-02-19T10:37:28.937Z,9.88
2019-02-19T10:39:58.226Z,9.92
2019-02-19T10:42:27.500Z,10.13
2019-02-19T10:44:56.771Z,10.36
2019-02-19T10:47:26.022Z,10.36
2019-02-19T10:49:55.311Z,10.41
2019-02-19T10:52:24.697Z,10.62
2019-02-19T10:54:53.992Z,10.68
2019-02-19T10:57:23.350Z,10.76
2019-02-19T10:59:52.603Z,10.82
2019-02-19T11:02:21.929Z,11.02
2019-02-19T11:04:51.181Z,10.96
2019-02-19T11:07:20.512Z,10.95
2019-02-19T11:09:49.780Z,10.95
2019-02-19T11:12:19.451Z,11.12
2019-02-19T11:14:49.709Z,10.74
2019-02-19T11:17:19.852Z,10.72
2019-02-19T11:19:49.284Z,10.50
2019-02-19T11:22:18.592Z,10.45
2019-02-19T11:24:47.865Z,10.37
2019-02-19T11:27:17.128Z,10.24
2019-02-19T11:29:46.425Z,10.27
2019-02-19T11:32:15.716Z,10.26
2019-02-19T11:34:44.976Z,10.20
2019-02-19T11:37:14.245Z,10.37
2019-02-19T11:39:43.504Z,10.29
2019-02-19T11:42:12.810Z,10.28
2019-02-19T11:44:42.068Z,10.21
2019-02-19T11:47:11.429Z,10.09
2019-02-19T11:49:40.686Z,9.97
2019-02-19T11:52:09.949Z,9.98
2019-02-19T11:54:39.236Z,9.89
2019-02-19T11:57:08.490Z,9.90
2019-02-19T11:59:37.790Z,9.82
2019-02-19T12:02:11.817Z,9.81
2019-02-19T12:04:41.101Z,9.77
2019-02-19T12:07:10.372Z,9.67
2019-02-19T12:09:39.677Z,9.70
2019-02-19T12:12:08.966Z,9.66
2019-02-19T12:14:38.231Z,9.74
2019-02-19T12:17:07.509Z,9.81
2019-02-19T12:19:36.778Z,9.85
2019-02-19T12:22:06.097Z,9.84
2019-02-19T12:24:35.348Z,9.98
2019-02-19T12:27:04.630Z,10.13
2019-02-19T12:29:33.910Z,10.26
2019-02-19T12:32:03.284Z,10.21
2019-02-19T12:34:34.036Z,10.19
2019-02-19T12:37:03.332Z,10.29
2019-02-19T12:39:32.584Z,10.20
2019-02-19T12:42:01.862Z,10.27
2019-02-19T12:44:31.168Z,10.32
2019-02-19T12:47:00.465Z,10.50
2019-02-19T12:49:29.708Z,10.48
2019-02-19T12:51:58.991Z,10.53
2019-02-19T12:54:28.329Z,10.51
2019-02-19T12:56:57.592Z,10.32
2019-02-19T12:59:26.877Z,10.36
2019-02-19T13:01:56.168Z,10.38
2019-02-19T13:04:25.487Z,10.70
2019-02-19T13:06:54.753Z,10.62
2019-02-19T13:09:24.252Z,10.66
2019-02-19T13:11:53.507Z,10.68
2019-02-19T13:14:22.780Z,10.56
2019-02-19T13:16:53.155Z,10.31
2019-02-19T13:19:22.407Z,10.36
2019-02-19T13:21:51.696Z,10.29
2019-02-19T13:24:20.956Z,10.28
2019-02-19T13:26:50.237Z,10.33
2019-02-19T13:29:19.487Z,10.21
2019-02-19T13:31:48.800Z,10.24
2019-02-19T13:34:18.141Z,10.09
2019-02-19T13:36:47.409Z,10.03
2019-02-19T13:39:16.711Z,9.90
2019-02-19T13:41:45.981Z,9.89
2019-02-19T13:44:15.263Z,9.84
2019-02-19T13:46:44.521Z,9.76
2019-02-19T13:49:13.798Z,9.61
2019-02-19T13:51:44.516Z,9.60
2019-02-19T13:54:27.616Z,9.56
2019-02-19T13:56:56.914Z,9.53
2019-02-19T13:59:26.241Z,9.57
2019-02-19T14:01:55.512Z,9.47
2019-02-19T14:04:24.797Z,9.40
2019-02-19T14:06:54.130Z,9.45
2019-02-19T14:09:23.435Z,9.39
2019-02-19T14:11:52.746Z,9.36
2019-02-19T14:14:33.647Z,9.31
2019-02-19T14:17:06.298Z,9.43
2019-02-19T14:19:42.429Z,9.43
2019-02-19T14:22:38.806Z,9.24
2019-02-19T14:25:30.358Z,9.15
2019-02-19T14:28:18.590Z,9.07
2019-02-19T14:31:05.535Z,9.04
2019-02-19T14:33:53.755Z,8.96
2019-02-19T14:36:44.771Z,8.99
2019-02-19T14:39:42.132Z,9.07
2019-02-19T14:42:29.513Z,9.06
2019-02-19T14:45:16.397Z,8.95
2019-02-19T14:48:03.261Z,9.01
2019-02-19T14:50:54.789Z,8.98
2019-02-19T14:53:52.717Z,8.94
2019-02-19T14:56:32.237Z,8.64
2019-02-19T14:59:16.451Z,8.78
2019-02-19T15:02:03.679Z,8.64
2019-02-19T15:04:54.674Z,8.72
2019-02-19T15:07:35.265Z,8.66
2019-02-19T15:10:26.540Z,8.65
2019-02-19T15:13:03.846Z,8.64
2019-02-19T15:15:51.235Z,8.53
2019-02-19T15:18:45.685Z,8.64
2019-02-19T15:21:36.826Z,8.60
2019-02-19T15:24:32.776Z,8.65
2019-02-19T15:27:36.382Z,8.67
2019-02-19T15:30:25.735Z,8.86
2019-02-19T15:33:16.997Z,8.76
2019-02-19T15:36:17.367Z,8.81
2019-02-19T15:38:56.780Z,8.91
2019-02-19T15:41:43.682Z,8.67
2019-02-19T15:44:30.256Z,8.60
2019-02-19T15:47:24.542Z,8.91
2019-02-19T15:50:18.745Z,8.99
2019-02-19T15:53:13.083Z,8.64
2019-02-19T15:55:53.333Z,8.69
2019-02-19T15:58:31.150Z,8.50
2019-02-19T16:01:34.840Z,8.38
2019-02-19T16:04:31.989Z,8.31
2019-02-19T16:07:22.955Z,8.66
2019-02-19T16:10:04.592Z,8.66
2019-02-19T16:12:52.816Z,8.59
2019-02-19T16:15:39.959Z,8.56
2019-02-19T16:18:21.819Z,8.51
2019-02-19T16:21:09.686Z,8.75
2019-02-19T16:23:52.938Z,8.58
2019-02-19T16:26:41.687Z,8.38
2019-02-19T16:29:18.373Z,8.36
2019-02-19T16:32:21.824Z,8.26
2019-02-19T16:35:00.332Z,8.15
2019-02-19T16:37:43.226Z,8.07
2019-02-19T16:40:31.412Z,8.05
2019-02-19T16:43:11.888Z,7.95
2019-02-19T16:45:51.915Z,7.93
2019-02-19T16:48:55.399Z,7.82
2019-02-19T16:51:48.554Z,7.85
2019-02-19T16:54:42.267Z,7.76
2019-02-19T16:57:39.656Z,7.76
2019-02-19T17:00:25.331Z,7.74
2019-02-19T17:03:02.621Z,7.67
2019-02-19T17:05:46.484Z,7.57
2019-02-19T17:08:36.236Z,7.50
2019-02-19T17:11:42.831Z,7.41
2019-02-19T17:14:33.723Z,7.34
2019-02-19T17:17:22.609Z,7.30
2019-02-19T17:20:21.035Z,7.17
2019-02-19T17:23:05.731Z,7.15
2019-02-19T17:25:50.624Z,7.12
2019-02-19T17:28:38.842Z,7.07
2019-02-19T17:31:19.051Z,6.97
2019-02-19T17:34:06.452Z,6.87
2019-02-19T17:36:44.941Z,6.69
2019-02-19T17:39:36.018Z,6.64
2019-02-19T17:42:39.361Z,6.60
2019-02-19T17:45:19.023Z,6.56
2019-02-19T17:48:10.107Z,6.49
2019-02-19T17:51:05.210Z,6.51
2019-02-19T17:53:41.656Z,6.48
2019-02-19T17:56:31.469Z,6.46
2019-02-19T17:59:10.864Z,6.42
2019-02-19T18:02:14.949Z,6.37
2019-02-19T18:05:01.515Z,6.12
2019-02-19T18:07:59.856Z,5.99
2019-02-19T18:11:00.546Z,5.91
2019-02-19T18:13:45.576Z,5.83
2019-02-19T18:16:32.502Z,5.65
2019-02-19T18:19:01.821Z,5.63
2019-02-19T18:21:34.596Z,5.76
2019-02-19T18:24:05.013Z,5.67
2019-02-19T18:26:35.538Z,5.74
2019-02-19T18:29:05.320Z,5.78
2019-02-19T18:31:34.833Z,5.83
2019-02-19T18:34:05.308Z,5.86
2019-02-19T18:36:36.342Z,5.87
2019-02-19T18:39:07.434Z,5.83
2019-02-19T18:41:36.749Z,5.87
2019-02-19T18:44:06.098Z,5.90
2019-02-19T18:46:36.836Z,5.88
2019-02-19T18:49:06.553Z,5.94
2019-02-19T18:51:36.201Z,5.86
2019-02-19T18:54:05.552Z,5.86
2019-02-19T18:56:35.996Z,5.76
2019-02-19T18:59:05.310Z,5.76
2019-02-19T19:01:34.722Z,5.82
2019-02-19T19:04:06.251Z,5.86
2019-02-19T19:06:35.591Z,5.75
2019-02-19T19:09:07.361Z,5.71
2019-02-19T19:11:38.885Z,5.55
2019-02-19T19:14:08.857Z,5.63
2019-02-19T19:16:39.122Z,5.83
2019-02-19T19:19:08.452Z,5.63
2019-02-19T19:21:38.122Z,5.58
2019-02-19T19:24:10.026Z,5.56
2019-02-19T19:26:39.327Z,5.51
2019-02-19T19:29:08.681Z,5.38
2019-02-19T19:31:38.203Z,5.24
2019-02-19T19:34:09.370Z,5.39
2019-02-19T19:36:41.465Z,5.30
2019-02-19T19:39:12.652Z,5.37
2019-02-19T19:41:43.868Z,5.29
2019-02-19T19:44:13.633Z,5.17
2019-02-19T19:46:44.777Z,5.09
2019-02-19T19:49:15.931Z,5.13
2019-02-19T19:51:48.091Z,5.06
2019-02-19T19:54:17.773Z,5.09
2019-02-19T19:56:48.831Z,4.87
2019-02-19T19:59:19.793Z,4.87
2019-02-19T20:01:49.593Z,5.01
2019-02-19T20:04:20.249Z,5.23
2019-02-19T20:06:52.991Z,5.29
2019-02-19T20:09:24.401Z,5.09
2019-02-19T20:11:54.064Z,5.03
2019-02-19T20:14:23.770Z,4.90
2019-02-19T20:16:55.261Z,4.89
2019-02-19T20:19:24.829Z,4.80
2019-02-19T20:21:56.471Z,4.80
2019-02-19T20:24:27.934Z,4.84
2019-02-19T20:26:57.231Z,4.84
2019-02-19T20:29:26.548Z,4.81
2019-02-19T20:31:55.800Z,4.58
2019-02-19T20:34:25.122Z,4.75
2019-02-19T20:36:54.401Z,4.72
2019-02-19T20:39:24.036Z,4.70
2019-02-19T20:41:53.399Z,4.79
2019-02-19T20:44:23.983Z,4.80
2019-02-19T20:46:55.914Z,4.87
2019-02-19T20:49:25.636Z,4.96
2019-02-19T20:51:54.986Z,5.04
2019-02-19T20:54:24.629Z,5.10
2019-02-19T20:56:54.157Z,5.05
2019-02-19T20:59:23.449Z,5.04
2019-02-19T21:01:53.084Z,5.07
2019-02-19T21:04:22.661Z,5.03
2019-02-19T21:06:53.894Z,5.06
2019-02-19T21:09:23.362Z,4.85
2019-02-19T21:11:52.836Z,4.84
2019-02-19T21:14:22.165Z,4.74
2019-02-19T21:16:51.725Z,4.75
2019-02-19T21:19:21.293Z,4.68
2019-02-19T21:21:50.564Z,4.63
2019-02-19T21:24:20.207Z,4.62
2019-02-19T21:26:49.766Z,4.70
2019-02-19T21:29:19.328Z,4.61
2019-02-19T21:31:48.887Z,4.64
2019-02-19T21:34:18.538Z,4.54
2019-02-19T21:36:48.125Z,4.60
2019-02-19T21:39:17.917Z,4.41
2019-02-19T21:41:47.472Z,4.38
2019-02-19T21:44:17.085Z,4.47
2019-02-19T21:46:46.412Z,4.42
2019-02-19T21:49:15.694Z,4.27
2019-02-19T21:51:53.740Z,4.20
2019-02-19T21:54:17.162Z,4.26
2019-02-19T21:56:46.440Z,4.17
2019-02-19T21:59:15.712Z,4.26
2019-02-19T22:01:45.068Z,4.07
2019-02-19T22:04:14.353Z,4.07
2019-02-19T22:06:43.630Z,3.96
2019-02-19T22:09:12.925Z,4.03
2019-02-19T22:11:42.414Z,4.08
2019-02-19T22:14:11.646Z,4.05
2019-02-19T22:16:40.916Z,3.98
2019-02-19T22:19:10.208Z,3.86
2019-02-19T22:21:44.310Z,3.79
2019-02-19T22:24:13.567Z,3.86
2019-02-19T22:26:42.862Z,3.77
2019-02-19T22:29:12.154Z,3.79
2019-02-19T22:31:41.426Z,3.75
2019-02-19T22:34:10.695Z,3.65
2019-02-19T22:36:39.976Z,3.79
2019-02-19T22:39:09.289Z,3.78
2019-02-19T22:41:38.569Z,3.59
2019-02-19T22:44:07.812Z,3.60
2019-02-19T22:46:38.564Z,3.63
2019-02-19T22:49:07.916Z,3.35
2019-02-19T22:51:37.198Z,3.38
2019-02-19T22:54:14.691Z,3.18
2019-02-19T22:56:45.357Z,3.42
2019-02-19T22:59:14.624Z,3.45
2019-02-19T23:01:57.155Z,3.43
2019-02-19T23:04:27.600Z,3.41
2019-02-19T23:06:56.897Z,3.40
2019-02-19T23:09:26.142Z,3.34
2019-02-19T23:11:55.397Z,3.32
2019-02-19T23:14:24.732Z,3.19
2019-02-19T23:16:53.988Z,3.10
2019-02-19T23:19:23.305Z,2.99
2019-02-19T23:21:52.568Z,3.13
2019-02-19T23:24:21.817Z,3.21
2019-02-19T23:26:51.172Z,3.34
2019-02-19T23:29:20.467Z,3.28
2019-02-19T23:31:49.760Z,3.38
2019-02-19T23:34:19.069Z,3.25
2019-02-19T23:36:51.509Z,3.19
2019-02-19T23:39:20.784Z,3.13
2019-02-19T23:41:50.084Z,3.15
2019-02-19T23:44:19.341Z,3.01
2019-02-19T23:46:48.620Z,2.96
2019-02-19T23:49:17.897Z,2.82
2019-02-19T23:51:47.150Z,2.92
2019-02-19T23:54:16.455Z,2.85
2019-02-19T23:56:45.713Z,2.91
2019-02-19T23:59:14.966Z,2.86
